createdAt,value
2022-11-01T00:01:33.084Z,4.53
2022-11-01T00:03:59.895Z,4.43
2022-11-01T00:06:26.869Z,5.55
2022-11-01T00:08:53.662Z,4.75
2022-11-01T00:11:20.579Z,5.03
2022-11-01T00:13:49.291Z,5.15
2022-11-01T00:16:18.134Z,5.15
2022-11-01T00:18:45.172Z,5.00
2022-11-01T00:21:12.860Z,4.85
2022-11-01T00:23:40.097Z,4.82
2022-11-01T00:26:07.256Z,5.65
2022-11-01T00:28:34.881Z,4.82
2022-11-01T00:31:01.915Z,6.40
2022-11-01T00:33:28.780Z,5.50
2022-11-01T00:36:00.860Z,5.50
2022-11-01T00:38:28.660Z,6.15
2022-11-01T00:40:56.270Z,5.45
2022-11-01T00:43:23.552Z,4.75
2022-11-01T00:45:50.853Z,5.45
2022-11-01T00:48:17.834Z,5.35
2022-11-01T00:50:45.621Z,5.38
2022-11-01T00:53:13.596Z,6.10
2022-11-01T00:55:41.069Z,5.63
2022-11-01T00:58:08.577Z,5.07
2022-11-01T01:00:36.405Z,4.97
2022-11-01T01:03:05.900Z,4.78
2022-11-01T01:05:33.976Z,4.82
2022-11-01T01:08:00.826Z,5.30
2022-11-01T01:10:27.708Z,5.10
2022-11-01T01:12:54.509Z,5.18
2022-11-01T01:15:21.345Z,5.18
2022-11-01T01:17:48.132Z,5.20
2022-11-01T01:20:14.949Z,4.70
2022-11-01T01:22:42.629Z,5.20
2022-11-01T01:25:10.553Z,4.93
2022-11-01T01:27:38.328Z,5.20
2022-11-01T01:30:07.873Z,4.72
2022-11-01T01:32:35.083Z,5.10
2022-11-01T01:35:02.066Z,4.97
2022-11-01T01:37:28.848Z,5.47
2022-11-01T01:39:55.864Z,5.25
2022-11-01T01:42:34.973Z,5.30
2022-11-01T01:45:05.101Z,5.20
2022-11-01T01:47:35.264Z,5.18
2022-11-01T01:50:20.786Z,5.38
2022-11-01T01:53:05.313Z,5.25
2022-11-01T01:56:01.641Z,5.70
2022-11-01T02:00:58.515Z,4.72
2022-11-01T02:03:31.200Z,4.82
2022-11-01T02:06:18.833Z,5.90
2022-11-01T02:08:55.875Z,5.15
2022-11-01T02:11:23.158Z,4.82
2022-11-01T02:13:50.688Z,5.10
2022-11-01T02:16:20.501Z,5.60
2022-11-01T02:18:49.362Z,4.90
2022-11-01T02:21:37.711Z,5.72
2022-11-01T02:24:45.179Z,5.20
2022-11-01T02:27:13.929Z,5.07
2022-11-01T02:29:46.752Z,4.90
2022-11-01T02:32:34.762Z,5.05
2022-11-01T02:35:41.831Z,4.63
2022-11-01T02:38:35.367Z,4.65
2022-11-01T02:41:08.723Z,4.82
2022-11-01T02:43:40.886Z,5.00
2022-11-01T02:46:27.571Z,5.00
2022-11-01T02:48:56.877Z,5.53
2022-11-01T02:51:26.571Z,5.20
2022-11-01T02:53:53.360Z,5.65
2022-11-01T02:56:22.848Z,5.88
2022-11-01T02:58:51.784Z,5.82
2022-11-01T03:01:25.061Z,5.40
2022-11-01T03:03:56.298Z,5.10
2022-11-01T03:06:44.645Z,4.85
2022-11-01T03:09:14.612Z,5.22
2022-11-01T03:11:51.569Z,4.90
2022-11-01T03:14:18.312Z,4.72
2022-11-01T03:17:06.650Z,4.85
2022-11-01T03:19:45.640Z,4.72
2022-11-01T03:22:25.126Z,5.05
2022-11-01T03:25:06.591Z,5.20
2022-11-01T03:27:38.925Z,5.43
2022-11-01T03:30:09.718Z,5.95
2022-11-01T03:32:52.369Z,6.30
2022-11-01T03:35:29.863Z,5.72
2022-11-01T03:38:01.882Z,5.82
2022-11-01T03:40:32.246Z,5.75
2022-11-01T03:43:05.113Z,5.82
2022-11-01T03:45:35.676Z,5.32
2022-11-01T03:48:03.076Z,5.22
2022-11-01T03:50:30.062Z,5.72
2022-11-01T03:52:57.015Z,5.75
2022-11-01T03:55:24.863Z,5.03
2022-11-01T03:58:00.110Z,4.97
2022-11-01T04:00:32.847Z,4.95
2022-11-01T04:03:00.593Z,5.82
2022-11-01T04:05:30.080Z,6.13
2022-11-01T04:07:56.987Z,6.00
2022-11-01T04:10:25.282Z,5.57
2022-11-01T04:12:52.882Z,5.95
2022-11-01T04:15:40.451Z,6.60
2022-11-01T04:18:36.273Z,5.60
2022-11-01T04:21:20.334Z,5.30
2022-11-01T04:23:47.775Z,5.43
2022-11-01T04:26:20.111Z,5.45
2022-11-01T04:29:07.503Z,5.53
2022-11-01T04:31:36.646Z,5.35
2022-11-01T04:34:05.151Z,4.78
2022-11-01T04:36:32.372Z,5.57
2022-11-01T04:38:59.191Z,5.28
2022-11-01T04:41:28.397Z,5.97
2022-11-01T04:43:58.360Z,6.22
2022-11-01T04:46:25.775Z,6.03
2022-11-01T04:48:52.650Z,5.93
2022-11-01T04:51:19.492Z,5.45
2022-11-01T04:53:46.275Z,5.28
2022-11-01T04:56:13.912Z,5.38
2022-11-01T04:58:44.967Z,5.35
2022-11-01T05:01:14.691Z,5.22
2022-11-01T05:03:42.069Z,5.50
2022-11-01T05:06:09.116Z,5.35
2022-11-01T05:08:35.922Z,5.32
2022-11-01T05:11:02.977Z,5.25
2022-11-01T05:13:30.178Z,5.07
2022-11-01T05:16:18.345Z,4.72
2022-11-01T05:18:44.078Z,4.88
2022-11-01T05:21:11.599Z,4.63
2022-11-01T05:23:38.376Z,4.85
2022-11-01T05:26:05.323Z,5.15
2022-11-01T05:28:32.277Z,5.60
2022-11-01T05:30:59.147Z,7.72
2022-11-01T05:33:26.236Z,13.30
2022-11-01T05:35:53.062Z,10.30
2022-11-01T05:38:19.961Z,13.30
2022-11-01T05:40:46.995Z,21.75
2022-11-01T05:43:13.765Z,18.98
2022-11-01T05:45:40.636Z,13.60
2022-11-01T05:48:07.613Z,30.77
2022-11-01T05:50:34.376Z,6.13
2022-11-01T05:53:08.701Z,5.93
2022-11-01T05:55:36.705Z,11.07
2022-11-01T05:58:04.033Z,4.97
2022-11-01T06:00:31.311Z,5.63
2022-11-01T06:02:59.673Z,6.35
2022-11-01T06:05:27.823Z,5.47
2022-11-01T06:07:54.882Z,5.63
2022-11-01T06:10:22.190Z,5.40
2022-11-01T06:12:49.303Z,5.90
2022-11-01T06:15:16.290Z,5.18
2022-11-01T06:17:43.067Z,5.57
2022-11-01T06:20:10.222Z,5.30
2022-11-01T06:22:37.082Z,5.10
2022-11-01T06:25:05.523Z,5.10
2022-11-01T06:27:33.518Z,5.03
2022-11-01T06:30:00.348Z,4.93
2022-11-01T06:32:27.379Z,5.82
2022-11-01T06:34:54.487Z,5.03
2022-11-01T06:37:21.393Z,5.32
2022-11-01T06:39:48.301Z,5.63
2022-11-01T06:42:15.178Z,5.28
2022-11-01T06:44:42.160Z,5.45
2022-11-01T06:47:09.170Z,5.20
2022-11-01T06:49:35.964Z,5.30
2022-11-01T06:52:03.453Z,5.57
2022-11-01T06:54:30.490Z,5.07
2022-11-01T06:56:57.924Z,5.30
2022-11-01T06:59:25.078Z,4.97
2022-11-01T07:01:55.150Z,4.57
2022-11-01T07:04:22.124Z,4.90
2022-11-01T07:06:49.229Z,5.25
2022-11-01T07:09:16.070Z,4.50
2022-11-01T07:11:42.940Z,4.85
2022-11-01T07:14:09.945Z,4.70
2022-11-01T07:16:38.976Z,4.18
2022-11-01T07:19:05.845Z,5.20
2022-11-01T07:21:32.851Z,4.85
2022-11-01T07:23:59.698Z,4.72
2022-11-01T07:26:26.506Z,5.05
2022-11-01T07:28:53.433Z,4.70
2022-11-01T07:31:20.225Z,4.70
2022-11-01T07:33:47.029Z,5.25
2022-11-01T07:36:13.897Z,4.78
2022-11-01T07:38:40.734Z,7.13
2022-11-01T07:41:07.644Z,5.35
2022-11-01T07:43:35.979Z,4.75
2022-11-01T07:46:07.417Z,4.45
2022-11-01T07:48:36.984Z,6.88
2022-11-01T07:51:06.140Z,8.23
2022-11-01T07:53:33.656Z,10.13
2022-11-01T07:56:02.094Z,9.90
2022-11-01T07:58:29.235Z,7.13
2022-11-01T08:00:56.170Z,8.57
2022-11-01T08:03:23.961Z,6.80
2022-11-01T08:05:50.849Z,11.00
2022-11-01T08:08:18.106Z,6.68
2022-11-01T08:10:46.457Z,6.85
2022-11-01T08:13:23.329Z,6.20
2022-11-01T08:15:51.626Z,5.15
2022-11-01T08:18:22.400Z,8.13
2022-11-01T08:20:49.342Z,5.45
2022-11-01T08:23:16.388Z,5.13
2022-11-01T08:25:43.505Z,5.22
2022-11-01T08:28:20.659Z,5.57
2022-11-01T08:30:49.270Z,6.72
2022-11-01T08:33:16.195Z,7.97
2022-11-01T08:35:49.735Z,7.65
2022-11-01T08:38:16.792Z,7.75
2022-11-01T08:40:43.678Z,11.52
2022-11-01T08:43:10.485Z,10.70
2022-11-01T08:45:37.452Z,9.05
2022-11-01T08:48:05.380Z,7.07
2022-11-01T08:50:34.003Z,7.22
2022-11-01T08:53:05.699Z,8.80
2022-11-01T08:58:04.978Z,10.43
2022-11-01T09:00:32.068Z,10.07
2022-11-01T09:02:58.967Z,9.30
2022-11-01T09:05:25.801Z,9.63
2022-11-01T09:08:01.076Z,10.65
2022-11-01T09:10:30.847Z,10.57
2022-11-01T09:13:01.905Z,12.23
2022-11-01T09:15:29.474Z,12.10
2022-11-01T09:17:56.295Z,11.43
2022-11-01T09:20:24.189Z,14.00
2022-11-01T09:22:52.611Z,15.07
2022-11-01T09:25:19.727Z,16.33
2022-11-01T09:27:46.699Z,15.85
2022-11-01T09:30:13.555Z,16.48
2022-11-01T09:32:40.490Z,16.13
2022-11-01T09:35:07.793Z,14.82
2022-11-01T09:37:34.920Z,14.52
2022-11-01T09:40:03.328Z,14.68
2022-11-01T09:42:48.450Z,12.50
2022-11-01T09:45:20.347Z,11.25
2022-11-01T09:47:51.906Z,8.57
2022-11-01T09:50:22.704Z,8.23
2022-11-01T09:52:50.702Z,9.77
2022-11-01T09:55:24.392Z,6.63
2022-11-01T09:58:04.787Z,7.45
2022-11-01T10:00:40.290Z,7.53
2022-11-01T10:03:42.259Z,7.35
2022-11-01T10:06:21.546Z,5.55
2022-11-01T10:09:11.830Z,7.72
2022-11-01T10:12:11.436Z,8.38
2022-11-01T10:14:56.596Z,8.15
2022-11-01T10:17:52.430Z,6.32
2022-11-01T10:20:24.480Z,4.57
2022-11-01T10:22:51.905Z,4.50
2022-11-01T10:25:29.989Z,7.50
2022-11-01T10:28:25.342Z,4.80
2022-11-01T10:31:02.735Z,4.30
2022-11-01T10:33:40.268Z,3.85
2022-11-01T10:39:44.401Z,5.93
2022-11-01T10:41:52.472Z,4.38
2022-11-01T10:44:22.190Z,4.63
2022-11-01T10:46:51.451Z,4.10
2022-11-01T10:49:35.142Z,4.45
2022-11-01T10:52:17.332Z,4.53
2022-11-01T10:54:45.845Z,4.18
2022-11-01T10:57:30.913Z,4.78
2022-11-01T11:00:01.687Z,4.53
2022-11-01T11:02:46.836Z,4.50
2022-11-01T11:05:17.082Z,4.10
2022-11-01T11:07:44.591Z,5.78
2022-11-01T11:10:29.415Z,5.43
2022-11-01T11:13:01.436Z,5.00
2022-11-01T11:15:44.245Z,4.72
2022-11-01T11:18:28.011Z,5.15
2022-11-01T11:21:01.448Z,5.25
2022-11-01T11:23:30.706Z,7.90
2022-11-01T11:26:19.226Z,7.93
2022-11-01T11:28:50.078Z,9.10
2022-11-01T11:31:31.881Z,11.07
2022-11-01T11:34:20.840Z,6.05
2022-11-01T11:36:53.825Z,6.90
2022-11-01T11:39:24.548Z,6.40
2022-11-01T11:41:51.758Z,5.40
2022-11-01T11:44:46.982Z,6.47
2022-11-01T11:47:19.292Z,11.32
2022-11-01T11:49:46.229Z,12.70
2022-11-01T11:52:28.664Z,10.27
2022-11-01T11:54:56.114Z,11.32
2022-11-01T11:57:30.061Z,24.92
2022-11-01T12:00:03.900Z,37.28
2022-11-01T12:02:41.582Z,7.43
2022-11-01T12:05:17.834Z,7.25
2022-11-01T12:07:50.569Z,6.95
2022-11-01T12:10:38.834Z,5.00
2022-11-01T12:13:28.440Z,6.93
2022-11-01T12:16:10.543Z,8.05
2022-11-01T12:19:06.522Z,9.65
2022-11-01T12:21:37.115Z,4.55
2022-11-01T12:24:17.340Z,4.13
2022-11-01T12:26:45.927Z,3.97
2022-11-01T12:29:37.467Z,4.30
2022-11-01T12:32:10.470Z,4.45
2022-11-01T12:34:42.341Z,4.45
2022-11-01T12:37:43.793Z,6.45
2022-11-01T12:40:21.221Z,7.60
2022-11-01T12:43:01.886Z,5.53
2022-11-01T12:45:31.534Z,4.30
2022-11-01T12:48:04.163Z,4.15
2022-11-01T12:50:46.106Z,4.15
2022-11-01T12:54:06.225Z,5.30
2022-11-01T12:56:33.261Z,3.75
2022-11-01T12:59:00.460Z,4.47
2022-11-01T13:02:03.529Z,6.80
2022-11-01T13:04:40.789Z,5.43
2022-11-01T13:07:29.263Z,4.45
2022-11-01T13:10:10.536Z,5.07
2022-11-01T13:13:02.709Z,12.10
2022-11-01T13:15:49.745Z,4.40
2022-11-01T13:18:26.576Z,4.55
2022-11-01T13:21:05.802Z,4.50
2022-11-01T13:23:49.095Z,4.07
2022-11-01T13:26:34.031Z,4.90
2022-11-01T13:29:17.819Z,4.97
2022-11-01T13:31:59.072Z,4.20
2022-11-01T13:34:39.754Z,5.30
2022-11-01T13:37:40.712Z,5.25
2022-11-01T13:40:30.785Z,4.30
2022-11-01T13:43:05.132Z,4.22
2022-11-01T13:45:53.858Z,4.28
2022-11-01T13:48:40.007Z,4.20
2022-11-01T13:51:39.069Z,3.58
2022-11-01T13:54:26.158Z,3.90
2022-11-01T13:56:58.801Z,3.72
2022-11-01T13:59:45.390Z,3.97
2022-11-01T14:02:24.680Z,3.85
2022-11-01T14:05:00.037Z,4.35
2022-11-01T14:07:31.125Z,4.80
2022-11-01T14:09:58.046Z,4.20
2022-11-01T14:12:44.790Z,4.10
2022-11-01T14:15:20.965Z,3.78
2022-11-01T14:17:56.529Z,4.30
2022-11-01T14:20:26.142Z,5.25
2022-11-01T14:22:53.973Z,3.92
2022-11-01T14:25:23.612Z,4.40
2022-11-01T14:28:11.533Z,5.10
2022-11-01T14:30:42.369Z,4.90
2022-11-01T14:33:14.551Z,4.47
2022-11-01T14:35:45.690Z,5.60
2022-11-01T14:38:23.861Z,5.32
2022-11-01T14:40:55.005Z,5.65
2022-11-01T14:43:27.904Z,5.00
2022-11-01T14:46:00.947Z,8.65
2022-11-01T14:48:46.679Z,6.97
2022-11-01T14:51:37.656Z,14.00
2022-11-01T14:54:42.449Z,21.70
2022-11-01T14:57:41.625Z,16.48
2022-11-01T15:00:28.749Z,10.95
2022-11-01T15:05:32.382Z,9.75
2022-11-01T15:07:59.929Z,9.10
2022-11-01T15:10:27.888Z,9.48
2022-11-01T15:12:58.752Z,10.00
2022-11-01T15:15:29.915Z,9.15
2022-11-01T15:18:00.701Z,9.02
2022-11-01T15:20:35.334Z,10.82
2022-11-01T15:23:06.974Z,10.75
2022-11-01T15:25:34.000Z,12.85
2022-11-01T15:28:01.073Z,13.48
2022-11-01T15:30:31.050Z,13.52
2022-11-01T15:33:20.936Z,15.00
2022-11-01T15:35:59.326Z,14.43
2022-11-01T15:38:27.515Z,12.73
2022-11-01T15:40:54.535Z,9.38
2022-11-01T15:43:24.104Z,12.38
2022-11-01T15:45:57.802Z,9.65
2022-11-01T15:48:36.968Z,9.35
2022-11-01T15:51:07.168Z,10.90
2022-11-01T15:53:36.111Z,10.68
2022-11-01T15:56:07.361Z,11.15
2022-11-01T15:58:40.824Z,11.20
2022-11-01T16:01:19.071Z,10.63
2022-11-01T16:04:06.464Z,11.48
2022-11-01T16:06:46.233Z,11.00
2022-11-01T16:09:19.009Z,8.45
2022-11-01T16:11:48.747Z,8.57
2022-11-01T16:14:27.245Z,7.47
2022-11-01T16:17:06.745Z,8.32
2022-11-01T16:19:42.725Z,8.38
2022-11-01T16:22:26.389Z,9.30
2022-11-01T16:25:10.091Z,7.40
2022-11-01T16:28:13.930Z,9.95
2022-11-01T16:30:46.807Z,8.60
2022-11-01T16:33:30.633Z,12.38
2022-11-01T16:36:26.697Z,8.88
2022-11-01T16:38:54.175Z,9.23
2022-11-01T16:41:38.039Z,7.63
2022-11-01T16:44:16.116Z,6.13
2022-11-01T16:46:43.163Z,7.35
2022-11-01T16:49:30.546Z,7.07
2022-11-01T16:51:57.851Z,11.10
2022-11-01T16:54:25.936Z,9.95
2022-11-01T16:56:55.531Z,9.07
2022-11-01T16:59:34.391Z,6.95
2022-11-01T17:02:03.720Z,10.05
2022-11-01T17:04:31.325Z,7.13
2022-11-01T17:06:58.333Z,8.32
2022-11-01T17:09:30.754Z,5.70
2022-11-01T17:11:57.606Z,6.50
2022-11-01T17:14:24.545Z,5.93
2022-11-01T17:16:52.720Z,6.43
2022-11-01T17:19:28.606Z,6.60
2022-11-01T17:21:57.229Z,7.25
2022-11-01T17:24:27.341Z,9.57
2022-11-01T17:26:59.006Z,8.98
2022-11-01T17:29:26.060Z,8.00
2022-11-01T17:31:52.844Z,7.80
2022-11-01T17:34:19.658Z,7.97
2022-11-01T17:36:48.759Z,7.50
2022-11-01T17:39:15.676Z,7.22
2022-11-01T17:41:42.643Z,10.75
2022-11-01T17:44:12.243Z,10.73
2022-11-01T17:46:39.845Z,12.02
2022-11-01T17:49:06.639Z,26.95
2022-11-01T17:51:34.290Z,29.38
2022-11-01T17:54:01.115Z,19.52
2022-11-01T17:56:27.943Z,31.90
2022-11-01T17:58:54.845Z,9.10
2022-11-01T18:01:22.052Z,6.63
2022-11-01T18:03:49.176Z,7.55
2022-11-01T18:06:16.719Z,7.47
2022-11-01T18:08:46.923Z,9.85
2022-11-01T18:11:30.836Z,11.43
2022-11-01T18:14:44.592Z,8.35
2022-11-01T18:17:17.269Z,7.93
2022-11-01T18:20:29.968Z,10.43
2022-11-01T18:23:00.643Z,9.82
2022-11-01T18:25:39.485Z,15.90
2022-11-01T18:28:13.642Z,18.45
2022-11-01T18:30:44.041Z,12.38
2022-11-01T18:33:16.951Z,8.40
2022-11-01T18:35:53.032Z,12.55
2022-11-01T18:38:35.959Z,19.95
2022-11-01T18:41:05.437Z,25.98
2022-11-01T18:43:37.819Z,9.30
2022-11-01T18:46:30.915Z,11.45
2022-11-01T18:49:02.013Z,9.25
2022-11-01T18:51:31.665Z,9.27
2022-11-01T18:54:11.019Z,11.43
2022-11-01T18:56:39.566Z,9.48
2022-11-01T18:59:29.532Z,13.18
2022-11-01T19:02:18.995Z,16.25
2022-11-01T19:04:47.495Z,17.25
2022-11-01T19:07:20.252Z,18.33
2022-11-01T19:10:00.364Z,15.93
2022-11-01T19:12:31.380Z,16.15
2022-11-01T19:15:02.240Z,11.50
2022-11-01T19:17:34.474Z,11.88
2022-11-01T19:20:01.487Z,11.13
2022-11-01T19:22:40.698Z,11.65
2022-11-01T19:25:20.754Z,11.57
2022-11-01T19:27:53.510Z,12.40
2022-11-01T19:30:25.641Z,13.27
2022-11-01T19:32:55.543Z,15.63
2022-11-01T19:35:23.582Z,15.18
2022-11-01T19:37:55.588Z,16.48
2022-11-01T19:40:31.649Z,14.38
2022-11-01T19:43:10.178Z,24.38
2022-11-01T19:45:41.236Z,15.57
2022-11-01T19:48:12.865Z,11.98
2022-11-01T19:50:49.466Z,10.38
2022-11-01T19:53:30.281Z,10.25
2022-11-01T19:56:03.994Z,10.40
2022-11-01T19:58:31.178Z,12.38
2022-11-01T20:01:21.119Z,10.23
2022-11-01T20:06:29.769Z,11.35
2022-11-01T20:09:06.457Z,13.75
2022-11-01T20:11:33.916Z,13.02
2022-11-01T20:14:01.335Z,23.33
2022-11-01T20:16:28.433Z,25.45
2022-11-01T20:18:55.345Z,20.60
2022-11-01T20:21:22.417Z,19.65
2022-11-01T20:23:50.186Z,18.73
2022-11-01T20:26:17.218Z,36.72
2022-11-01T20:28:44.101Z,27.52
2022-11-01T20:31:11.110Z,12.75
2022-11-01T20:33:37.921Z,10.70
2022-11-01T20:36:10.735Z,13.25
2022-11-01T20:38:39.116Z,14.20
2022-11-01T20:41:06.473Z,11.38
2022-11-01T20:43:33.352Z,14.38
2022-11-01T20:46:00.159Z,10.35
2022-11-01T20:48:27.064Z,9.10
2022-11-01T20:50:54.057Z,9.25
2022-11-01T20:53:21.538Z,8.15
2022-11-01T20:55:50.651Z,14.93
2022-11-01T20:58:18.067Z,9.48
2022-11-01T21:00:45.335Z,11.65
2022-11-01T21:03:17.885Z,8.85
2022-11-01T21:05:46.886Z,8.50
2022-11-01T21:08:23.859Z,14.65
2022-11-01T21:11:01.020Z,8.93
2022-11-01T21:13:37.732Z,12.40
2022-11-01T21:16:14.122Z,8.13
2022-11-01T21:18:44.441Z,9.73
2022-11-01T21:21:14.102Z,13.27
2022-11-01T21:23:43.338Z,10.32
2022-11-01T21:26:19.862Z,8.50
2022-11-01T21:28:49.239Z,7.68
2022-11-01T21:31:37.729Z,6.75
2022-11-01T21:34:10.680Z,6.70
2022-11-01T21:36:42.772Z,7.63
2022-11-01T21:39:18.620Z,7.25
2022-11-01T21:41:54.767Z,8.57
2022-11-01T21:44:27.194Z,6.70
2022-11-01T21:47:19.226Z,8.18
2022-11-01T21:49:46.360Z,10.25
2022-11-01T21:52:13.754Z,8.48
2022-11-01T21:54:41.955Z,7.53
2022-11-01T21:57:10.631Z,6.28
2022-11-01T21:59:38.318Z,6.70
2022-11-01T22:02:06.953Z,9.77
2022-11-01T22:04:34.083Z,9.73
2022-11-01T22:07:03.069Z,9.27
2022-11-01T22:09:31.418Z,6.63
2022-11-01T22:11:59.120Z,6.20
2022-11-01T22:14:26.053Z,6.93
2022-11-01T22:16:52.957Z,6.32
2022-11-01T22:19:19.893Z,7.82
2022-11-01T22:24:18.409Z,7.57
2022-11-01T22:26:45.329Z,6.32
2022-11-01T22:29:12.293Z,8.10
2022-11-01T22:31:39.228Z,7.47
2022-11-01T22:34:06.231Z,7.38
2022-11-01T22:36:36.168Z,7.30
2022-11-01T22:39:17.249Z,7.05
2022-11-01T22:41:44.224Z,7.20
2022-11-01T22:44:14.544Z,6.13
2022-11-01T22:46:44.126Z,7.40
2022-11-01T22:49:34.095Z,6.40
2022-11-01T22:52:13.255Z,7.13
2022-11-01T22:54:47.578Z,7.25
2022-11-01T22:57:20.318Z,7.80
2022-11-01T22:59:57.711Z,7.40
2022-11-01T23:02:30.489Z,6.32
2022-11-01T23:05:06.507Z,6.82
2022-11-01T23:07:39.973Z,7.22
2022-11-01T23:10:24.440Z,8.15
2022-11-01T23:13:14.807Z,7.32
2022-11-01T23:15:41.681Z,9.25
2022-11-01T23:18:18.275Z,7.90
2022-11-01T23:20:51.765Z,10.55
2022-11-01T23:23:21.116Z,7.50
2022-11-01T23:25:48.475Z,7.78
2022-11-01T23:28:15.532Z,7.93
2022-11-01T23:30:43.667Z,8.20
2022-11-01T23:33:13.166Z,8.07
2022-11-01T23:35:40.773Z,7.32
2022-11-01T23:38:39.607Z,7.70
2022-11-01T23:41:17.989Z,7.22
2022-11-01T23:43:44.913Z,8.02
2022-11-01T23:46:13.123Z,6.88
2022-11-01T23:48:43.337Z,7.03
2022-11-01T23:51:20.063Z,7.43
2022-11-01T23:53:51.325Z,7.28
2022-11-01T23:56:19.980Z,7.47
2022-11-01T23:58:54.226Z,6.95
